Metar z pełnej godziny Komunikat METAR ze strony awiacja.imgw.pl Metar G00 EPLL METAR EPLL 241900Z VRB02KT CAVOK 14/10 Q1012 =